To NAV CANADA Home Page Login to a new session Search on AWWS site Feedback and Comments Disclaimer Vers la page française équivalente Tips FAQ What's new on the site To the Forecasts and Observations / NOTAM section To "File a Flight Plan" website Publications and other links Update of the User's profile FIC Telephone Numbers My Weather Data Folder Route Weather Data Regional Weather Data Local Weather Data To the Forecasts and Observations / NOTAM section
Request Generated 01/17/2017 at 04:53:33 UTC . Weather information available at that time is displayed.

METAR/TAF

THUNDER BAY/ON    (show WxCam)

METAR CYQT 170400Z 00000KT 10SM OVC011 M06/M08 A3006 RMK SC8 SLP196=
METAR CYQT 170300Z 00000KT 10SM OVC011 M08/M10 A3007 RMK SC8 SLP202=
METAR CYQT 170200Z 00000KT 10SM BKN013 M09/M10 A3010 RMK SC7 SLP211=

TAF AMD CYQT 170214Z 1702/1714 VRB03KT 5SM BR BKN012 TEMPO 1702/1714
P6SM NSW SCT012 PROB30 1704/1714 1SM BR BKN005
RMK NXT FCST BY 170800Z=
Your time UTC time
Weather data provided by Environment Canada and NAV CANADA